createdAt,value
2023-02-03T00:00:01.453Z,0.37
2023-02-03T00:02:29.039Z,1.02
2023-02-03T00:04:56.632Z,0.73
2023-02-03T00:07:24.297Z,0.90
2023-02-03T00:09:51.937Z,0.73
2023-02-03T00:12:20.204Z,0.73
2023-02-03T00:14:47.782Z,0.57
2023-02-03T00:17:15.399Z,1.00
2023-02-03T00:19:42.948Z,1.13
2023-02-03T00:22:10.458Z,0.98
2023-02-03T00:24:38.791Z,1.20
2023-02-03T00:27:06.487Z,0.73
2023-02-03T00:29:33.980Z,0.70
2023-02-03T00:32:01.722Z,1.15
2023-02-03T00:34:30.737Z,1.13
2023-02-03T00:36:58.597Z,1.00
2023-02-03T00:39:26.229Z,1.67
2023-02-03T00:41:53.819Z,1.90
2023-02-03T00:44:21.407Z,1.70
2023-02-03T00:46:48.905Z,1.83
2023-02-03T00:49:16.510Z,1.60
2023-02-03T00:51:43.984Z,1.65
2023-02-03T00:54:11.609Z,2.47
2023-02-03T00:56:39.813Z,1.88
2023-02-03T00:59:07.427Z,2.15
2023-02-03T01:01:36.103Z,2.33
2023-02-03T01:04:04.226Z,2.40
2023-02-03T01:06:34.161Z,2.70
2023-02-03T01:09:02.801Z,3.90
2023-02-03T01:11:30.455Z,3.00
2023-02-03T01:14:00.973Z,3.60
2023-02-03T01:16:31.721Z,3.28
2023-02-03T01:18:59.340Z,3.50
2023-02-03T01:21:28.920Z,3.05
2023-02-03T01:23:56.524Z,4.00
2023-02-03T01:26:24.712Z,2.37
2023-02-03T01:28:58.423Z,2.75
2023-02-03T01:31:35.045Z,2.90
2023-02-03T01:34:03.836Z,3.05
2023-02-03T01:36:33.755Z,2.90
2023-02-03T01:39:04.859Z,2.40
2023-02-03T01:41:37.430Z,3.38
2023-02-03T01:44:36.270Z,2.58
2023-02-03T01:47:06.617Z,2.38
2023-02-03T01:49:36.786Z,2.40
2023-02-03T01:52:05.733Z,3.37
2023-02-03T01:54:38.771Z,3.75
2023-02-03T01:57:12.255Z,2.72
2023-02-03T01:59:40.234Z,2.90
2023-02-03T02:02:08.213Z,2.60
2023-02-03T02:04:51.369Z,2.50
2023-02-03T02:07:18.959Z,3.08
2023-02-03T02:09:47.577Z,3.17
2023-02-03T02:12:15.688Z,3.25
2023-02-03T02:14:44.750Z,3.58
2023-02-03T02:17:24.435Z,3.43
2023-02-03T02:20:25.941Z,3.20
2023-02-03T02:23:08.895Z,3.28
2023-02-03T02:26:08.259Z,3.83
2023-02-03T02:29:03.904Z,3.58
2023-02-03T02:31:44.066Z,3.07
2023-02-03T02:34:29.048Z,3.08
2023-02-03T02:37:24.722Z,2.40
2023-02-03T02:40:00.781Z,2.70
2023-02-03T02:42:46.629Z,2.83
2023-02-03T02:45:27.992Z,2.67
2023-02-03T02:48:13.556Z,2.38
2023-02-03T02:50:46.751Z,3.40
2023-02-03T02:53:15.615Z,2.05
2023-02-03T02:55:46.587Z,2.40
2023-02-03T02:58:17.143Z,2.70
2023-02-03T03:00:45.830Z,2.05
2023-02-03T03:03:22.616Z,2.40
2023-02-03T03:06:00.606Z,2.03
2023-02-03T03:08:49.598Z,2.40
2023-02-03T03:11:18.554Z,2.57
2023-02-03T03:13:51.000Z,2.72
2023-02-03T03:16:27.217Z,3.00
2023-02-03T03:19:10.077Z,3.25
2023-02-03T03:21:51.332Z,3.17
2023-02-03T03:24:24.582Z,2.50
2023-02-03T03:27:18.168Z,2.85
2023-02-03T03:29:57.626Z,2.20
2023-02-03T03:32:28.220Z,2.70
2023-02-03T03:34:56.916Z,3.13
2023-02-03T03:37:36.461Z,3.13
2023-02-03T03:40:30.466Z,2.20
2023-02-03T03:43:04.060Z,2.42
2023-02-03T03:45:55.983Z,2.42
2023-02-03T03:48:30.418Z,3.30
2023-02-03T03:51:09.426Z,2.63
2023-02-03T03:53:41.105Z,3.13
2023-02-03T03:56:16.013Z,2.25
2023-02-03T03:58:47.074Z,2.40
2023-02-03T04:01:16.634Z,2.15
2023-02-03T04:03:50.705Z,2.57
2023-02-03T04:06:18.562Z,1.95
2023-02-03T04:08:46.043Z,3.08
2023-02-03T04:11:33.613Z,2.30
2023-02-03T04:14:01.124Z,2.53
2023-02-03T04:16:28.746Z,3.47
2023-02-03T04:18:56.682Z,2.22
2023-02-03T04:21:24.287Z,3.00
2023-02-03T04:23:52.352Z,2.25
2023-02-03T04:26:19.881Z,2.72
2023-02-03T04:28:47.526Z,3.00
2023-02-03T04:31:15.106Z,2.90
2023-02-03T04:33:42.759Z,2.80
2023-02-03T04:36:10.355Z,3.35
2023-02-03T04:38:37.897Z,2.25
2023-02-03T04:41:05.430Z,2.50
2023-02-03T04:43:32.917Z,2.47
2023-02-03T04:46:01.093Z,2.85
2023-02-03T04:48:29.034Z,2.10
2023-02-03T04:51:01.638Z,2.92
2023-02-03T04:53:29.899Z,2.67
2023-02-03T04:55:57.421Z,2.50
2023-02-03T04:58:26.996Z,2.03
2023-02-03T05:00:55.521Z,3.25
2023-02-03T05:03:25.041Z,2.75
2023-02-03T05:05:57.085Z,2.63
2023-02-03T05:08:25.074Z,1.83
2023-02-03T05:10:52.566Z,2.17
2023-02-03T05:13:20.194Z,2.13
2023-02-03T05:15:47.694Z,3.00
2023-02-03T05:18:15.232Z,2.50
2023-02-03T05:20:42.753Z,2.17
2023-02-03T05:23:10.288Z,2.35
2023-02-03T05:25:37.871Z,2.38
2023-02-03T05:28:05.882Z,2.83
2023-02-03T05:30:33.613Z,1.80
2023-02-03T05:33:01.138Z,2.30
2023-02-03T05:35:28.670Z,2.10
2023-02-03T05:37:56.620Z,2.30
2023-02-03T05:40:42.551Z,2.42
2023-02-03T05:43:10.187Z,2.67
2023-02-03T05:45:37.943Z,2.38
2023-02-03T05:48:07.431Z,2.70
2023-02-03T05:50:38.432Z,3.22
2023-02-03T05:53:09.452Z,2.60
2023-02-03T05:55:37.872Z,1.93
2023-02-03T05:58:05.441Z,2.63
2023-02-03T06:00:33.267Z,2.42
2023-02-03T06:03:02.668Z,2.67
2023-02-03T06:05:32.085Z,3.33
2023-02-03T06:08:00.201Z,2.50
2023-02-03T06:10:28.162Z,2.50
2023-02-03T06:12:56.057Z,2.40
2023-02-03T06:15:23.607Z,2.60
2023-02-03T06:17:51.341Z,2.50
2023-02-03T06:20:20.537Z,2.40
2023-02-03T06:22:48.220Z,2.15
2023-02-03T06:25:15.916Z,2.38
2023-02-03T06:27:43.517Z,2.35
2023-02-03T06:30:12.580Z,2.38
2023-02-03T06:32:40.209Z,2.40
2023-02-03T06:35:08.224Z,2.22
2023-02-03T06:37:36.376Z,2.38
2023-02-03T06:40:04.572Z,2.33
2023-02-03T06:42:32.549Z,2.85
2023-02-03T06:45:00.113Z,3.10
2023-02-03T06:47:27.994Z,2.90
2023-02-03T06:49:55.723Z,3.17
2023-02-03T06:52:23.349Z,2.20
2023-02-03T06:54:50.833Z,2.63
2023-02-03T06:57:18.590Z,2.27
2023-02-03T06:59:46.120Z,2.08
2023-02-03T07:02:13.747Z,2.53
2023-02-03T07:04:41.333Z,2.83
2023-02-03T07:07:09.091Z,2.55
2023-02-03T07:09:36.777Z,2.27
2023-02-03T07:12:04.922Z,3.75
2023-02-03T07:14:32.673Z,2.42
2023-02-03T07:17:00.207Z,2.30
2023-02-03T07:19:27.810Z,2.47
2023-02-03T07:21:55.743Z,2.13
2023-02-03T07:24:23.258Z,2.08
2023-02-03T07:26:50.847Z,2.10
2023-02-03T07:29:18.385Z,2.10
2023-02-03T07:31:46.090Z,2.85
2023-02-03T07:34:13.751Z,2.30
2023-02-03T07:36:41.918Z,2.00
2023-02-03T07:39:09.518Z,2.05
2023-02-03T07:41:37.398Z,2.22
2023-02-03T07:44:05.569Z,2.38
2023-02-03T07:46:33.182Z,2.00
2023-02-03T07:49:04.483Z,2.88
2023-02-03T07:51:32.045Z,2.17
2023-02-03T07:53:59.650Z,2.55
2023-02-03T07:56:27.276Z,2.33
2023-02-03T07:58:54.799Z,2.87
2023-02-03T08:01:22.684Z,2.35
2023-02-03T08:03:50.255Z,2.13
2023-02-03T08:06:18.045Z,2.63
2023-02-03T08:08:45.749Z,2.50
2023-02-03T08:11:13.422Z,2.67
2023-02-03T08:13:41.029Z,2.17
2023-02-03T08:16:08.857Z,2.35
2023-02-03T08:18:36.624Z,2.22
2023-02-03T08:21:05.026Z,2.78
2023-02-03T08:23:32.656Z,2.07
2023-02-03T08:26:00.483Z,2.15
2023-02-03T08:28:28.391Z,2.58
2023-02-03T08:30:57.822Z,2.45
2023-02-03T08:33:25.904Z,2.60
2023-02-03T08:35:53.800Z,2.50
2023-02-03T08:38:22.072Z,3.00
2023-02-03T08:40:49.900Z,2.38
2023-02-03T08:43:18.448Z,2.65
2023-02-03T08:45:46.323Z,2.78
2023-02-03T08:48:14.669Z,1.90
2023-02-03T08:50:44.561Z,2.65
2023-02-03T08:53:12.390Z,2.03
2023-02-03T08:55:40.654Z,2.33
2023-02-03T08:58:08.461Z,2.75
2023-02-03T09:00:36.290Z,2.50
2023-02-03T09:03:04.410Z,3.45
2023-02-03T09:05:32.891Z,3.30
2023-02-03T09:08:00.789Z,3.20
2023-02-03T09:10:29.234Z,2.75
2023-02-03T09:12:57.402Z,3.23
2023-02-03T09:15:25.519Z,3.17
2023-02-03T09:17:55.458Z,3.28
2023-02-03T09:20:24.717Z,2.63
2023-02-03T09:22:55.092Z,2.40
2023-02-03T09:25:22.894Z,2.73
2023-02-03T09:27:50.525Z,2.22
2023-02-03T09:30:18.413Z,3.53
2023-02-03T09:32:49.050Z,2.83
2023-02-03T09:35:16.990Z,2.72
2023-02-03T09:37:44.719Z,3.37
2023-02-03T09:40:22.588Z,3.22
2023-02-03T09:43:19.950Z,3.30
2023-02-03T09:45:48.257Z,3.45
2023-02-03T09:48:21.901Z,3.53
2023-02-03T09:50:52.131Z,3.13
2023-02-03T09:53:34.385Z,2.83
2023-02-03T09:56:02.080Z,3.40
2023-02-03T09:58:34.119Z,2.83
2023-02-03T10:01:06.870Z,3.42
2023-02-03T10:03:47.417Z,4.03
2023-02-03T10:06:37.985Z,4.22
2023-02-03T10:09:17.862Z,3.20
2023-02-03T10:12:02.973Z,3.47
2023-02-03T10:14:40.010Z,3.47
2023-02-03T10:17:16.644Z,3.30
2023-02-03T10:19:58.325Z,3.55
2023-02-03T10:22:29.924Z,3.53
2023-02-03T10:25:07.348Z,3.03
2023-02-03T10:27:37.366Z,3.72
2023-02-03T10:30:18.318Z,3.83
2023-02-03T10:32:47.985Z,3.42
2023-02-03T10:35:15.852Z,3.05
2023-02-03T10:37:51.193Z,3.13
2023-02-03T10:40:27.513Z,3.47
2023-02-03T10:43:14.382Z,3.80
2023-02-03T10:45:42.189Z,3.15
2023-02-03T10:48:18.477Z,3.90
2023-02-03T10:50:48.949Z,2.63
2023-02-03T10:53:28.332Z,3.00
2023-02-03T10:56:06.719Z,2.63
2023-02-03T10:58:35.653Z,2.92
2023-02-03T11:01:11.108Z,3.53
2023-02-03T11:03:42.984Z,3.05
2023-02-03T11:06:12.634Z,2.70
2023-02-03T11:08:44.203Z,3.20
2023-02-03T11:11:32.605Z,3.67
2023-02-03T11:14:03.380Z,2.92
2023-02-03T11:16:33.791Z,2.47
2023-02-03T11:19:06.435Z,2.60
2023-02-03T11:21:48.357Z,2.60
2023-02-03T11:24:18.871Z,3.28
2023-02-03T11:27:04.993Z,3.63
2023-02-03T11:30:06.950Z,2.60
2023-02-03T11:32:38.248Z,2.38
2023-02-03T11:35:25.335Z,2.53
2023-02-03T11:37:58.759Z,2.72
2023-02-03T11:40:30.129Z,3.03
2023-02-03T11:42:58.047Z,3.00
2023-02-03T11:45:39.460Z,3.25
2023-02-03T11:48:07.262Z,3.43
2023-02-03T11:50:55.582Z,2.67
2023-02-03T11:53:32.434Z,2.58
2023-02-03T11:56:09.931Z,2.58
2023-02-03T11:58:54.170Z,2.40
2023-02-03T12:01:41.282Z,2.57
2023-02-03T12:04:27.775Z,2.50
2023-02-03T12:07:26.377Z,2.15
2023-02-03T12:10:14.566Z,1.83
2023-02-03T12:13:16.493Z,1.65
2023-02-03T12:16:09.877Z,1.80
2023-02-03T12:18:50.013Z,1.33
2023-02-03T12:21:35.840Z,1.10
2023-02-03T12:24:09.258Z,1.00
2023-02-03T12:26:50.798Z,0.88
2023-02-03T12:29:43.334Z,0.77
2023-02-03T12:32:26.785Z,0.90
2023-02-03T12:35:02.404Z,0.90
2023-02-03T12:37:48.563Z,0.82
2023-02-03T12:40:29.559Z,0.60
2023-02-03T12:43:04.571Z,0.50
2023-02-03T12:45:36.792Z,0.45
2023-02-03T12:48:17.801Z,0.88
2023-02-03T12:50:50.639Z,1.30
2023-02-03T12:53:33.093Z,0.38
2023-02-03T12:56:15.159Z,0.33
2023-02-03T12:58:48.862Z,0.22
2023-02-03T13:01:19.794Z,0.20
2023-02-03T13:04:11.127Z,0.20
2023-02-03T13:06:46.107Z,0.43
2023-02-03T13:09:35.433Z,0.30
2023-02-03T13:12:12.856Z,0.30
2023-02-03T13:14:55.744Z,0.50
2023-02-03T13:17:31.405Z,0.22
2023-02-03T13:20:02.785Z,0.30
2023-02-03T13:22:30.692Z,0.40
2023-02-03T13:25:17.073Z,0.38
2023-02-03T13:28:19.882Z,0.43
2023-02-03T13:31:07.724Z,0.45
2023-02-03T13:33:54.055Z,0.40
2023-02-03T13:36:33.528Z,0.20
2023-02-03T13:39:20.762Z,0.28
2023-02-03T13:41:52.188Z,0.35
2023-02-03T13:44:29.582Z,0.30
2023-02-03T13:46:59.220Z,0.45
2023-02-03T13:49:33.872Z,0.23
2023-02-03T13:52:02.196Z,0.43
2023-02-03T13:54:37.929Z,0.40
2023-02-03T13:57:19.841Z,0.40
2023-02-03T13:59:48.863Z,0.30
2023-02-03T14:02:19.352Z,0.20
2023-02-03T14:04:47.017Z,0.30
2023-02-03T14:07:23.973Z,0.32
2023-02-03T14:10:13.133Z,0.30
2023-02-03T14:12:50.155Z,0.30
2023-02-03T14:15:25.918Z,0.30
2023-02-03T14:17:56.044Z,0.52
2023-02-03T14:20:29.910Z,0.60
2023-02-03T14:23:06.613Z,0.57
2023-02-03T14:25:46.898Z,0.60
2023-02-03T14:28:26.146Z,0.70
2023-02-03T14:31:12.998Z,0.52
2023-02-03T14:33:59.839Z,0.60
2023-02-03T14:36:29.296Z,0.50
2023-02-03T14:39:00.313Z,0.77
2023-02-03T14:41:46.136Z,0.50
2023-02-03T14:44:35.722Z,0.57
2023-02-03T14:47:22.528Z,0.68
2023-02-03T14:50:13.350Z,0.73
2023-02-03T14:53:09.262Z,0.68
2023-02-03T14:55:50.434Z,0.80
2023-02-03T14:58:34.339Z,0.60
2023-02-03T15:01:05.585Z,0.80
2023-02-03T15:03:35.169Z,0.80
2023-02-03T15:06:05.468Z,0.80
2023-02-03T15:08:36.702Z,0.67
2023-02-03T15:11:16.626Z,0.90
2023-02-03T15:13:44.236Z,0.98
2023-02-03T15:16:18.520Z,0.90
2023-02-03T15:18:53.365Z,0.80
2023-02-03T15:21:21.232Z,1.13
2023-02-03T15:23:49.468Z,1.05
2023-02-03T15:26:20.928Z,0.93
2023-02-03T15:29:03.441Z,0.85
2023-02-03T15:31:41.742Z,0.93
2023-02-03T15:34:29.771Z,1.17
2023-02-03T15:37:02.218Z,1.08
2023-02-03T15:39:32.480Z,0.93
2023-02-03T15:42:01.237Z,1.10
2023-02-03T15:44:40.969Z,1.13
2023-02-03T15:47:22.942Z,1.10
2023-02-03T15:49:58.860Z,1.00
2023-02-03T15:52:29.004Z,1.35
2023-02-03T15:55:08.119Z,1.30
2023-02-03T15:57:37.373Z,1.05
2023-02-03T16:00:29.842Z,1.10
2023-02-03T16:02:59.616Z,0.70
2023-02-03T16:05:34.992Z,1.10
2023-02-03T16:08:39.821Z,1.35
2023-02-03T16:11:41.855Z,1.42
2023-02-03T16:14:12.381Z,0.57
2023-02-03T16:17:03.895Z,1.27
2023-02-03T16:19:34.633Z,0.80
2023-02-03T16:22:02.392Z,0.80
2023-02-03T16:24:33.286Z,0.80
2023-02-03T16:27:25.611Z,1.00
2023-02-03T16:30:12.122Z,0.80
2023-02-03T16:32:58.774Z,0.85
2023-02-03T16:35:44.956Z,0.70
2023-02-03T16:38:36.072Z,0.85
2023-02-03T16:41:28.989Z,0.90
2023-02-03T16:44:15.269Z,0.63
2023-02-03T16:47:02.401Z,0.68
2023-02-03T16:49:48.519Z,0.60
2023-02-03T16:52:16.681Z,0.50
2023-02-03T16:54:44.322Z,0.57
2023-02-03T16:57:12.173Z,1.15
2023-02-03T16:59:39.836Z,0.80
2023-02-03T17:02:07.858Z,1.65
2023-02-03T17:04:35.841Z,0.70
2023-02-03T17:07:05.287Z,1.17
2023-02-03T17:09:35.874Z,0.82
2023-02-03T17:12:04.117Z,1.00
2023-02-03T17:14:31.797Z,1.40
2023-02-03T17:16:59.637Z,1.13
2023-02-03T17:19:27.303Z,1.03
2023-02-03T17:21:56.086Z,1.40
2023-02-03T17:24:24.646Z,1.30
2023-02-03T17:26:53.098Z,0.82
2023-02-03T17:29:20.984Z,1.13
2023-02-03T17:31:48.756Z,1.13
2023-02-03T17:34:16.572Z,1.30
2023-02-03T17:36:44.393Z,1.10
2023-02-03T17:55:33.951Z,1.25
2023-02-03T17:58:01.798Z,1.07
2023-02-03T18:00:29.762Z,0.98
2023-02-03T18:02:57.793Z,1.30
2023-02-03T18:05:25.603Z,1.30
2023-02-03T18:07:53.240Z,1.08
2023-02-03T18:10:21.324Z,1.27
2023-02-03T18:12:49.231Z,1.23
2023-02-03T18:15:17.036Z,1.50
2023-02-03T18:17:44.724Z,2.50
2023-02-03T18:20:12.801Z,2.63
2023-02-03T18:25:44.913Z,1.13
2023-02-03T18:28:13.742Z,1.63
2023-02-03T18:30:41.695Z,1.27
2023-02-03T18:33:09.356Z,1.40
2023-02-03T18:35:36.906Z,0.80
2023-02-03T18:38:04.558Z,1.00
2023-02-03T18:40:32.258Z,1.33
2023-02-03T18:43:01.161Z,1.30
2023-02-03T18:45:29.805Z,1.40
2023-02-03T18:47:57.390Z,2.20
2023-02-03T18:50:25.680Z,3.13
2023-02-03T18:52:54.619Z,2.08
2023-02-03T18:55:22.584Z,2.33
2023-02-03T18:57:50.143Z,2.20
2023-02-03T19:00:17.959Z,1.00
2023-02-03T19:02:49.257Z,1.17
2023-02-03T19:05:16.885Z,1.85
2023-02-03T19:07:44.432Z,2.08
2023-02-03T19:10:12.159Z,1.50
2023-02-03T19:12:39.732Z,1.67
2023-02-03T19:15:08.821Z,1.80
2023-02-03T19:17:38.124Z,2.03
2023-02-03T19:20:06.665Z,2.40
2023-02-03T19:22:34.291Z,2.10
2023-02-03T19:25:01.802Z,1.90
2023-02-03T19:27:29.406Z,2.10
2023-02-03T19:29:56.912Z,1.85
2023-02-03T19:32:24.606Z,1.52
2023-02-03T19:34:52.191Z,1.20
2023-02-03T19:37:19.798Z,1.13
2023-02-03T19:39:50.462Z,1.23
2023-02-03T19:42:18.097Z,3.33
2023-02-03T19:44:45.615Z,2.20
2023-02-03T19:47:13.604Z,2.30
2023-02-03T19:49:41.111Z,2.33
2023-02-03T19:52:10.288Z,3.22
2023-02-03T19:54:37.954Z,3.00
2023-02-03T19:57:05.531Z,4.65
2023-02-03T19:59:33.064Z,2.90
2023-02-03T20:02:12.599Z,1.57
2023-02-03T20:04:42.596Z,2.55
2023-02-03T20:07:12.107Z,1.85
2023-02-03T20:09:39.944Z,1.20
2023-02-03T20:12:07.585Z,1.30
2023-02-03T20:14:35.433Z,1.77
2023-02-03T20:17:04.993Z,1.40
2023-02-03T20:19:32.538Z,1.30
2023-02-03T20:22:00.999Z,2.10
2023-02-03T20:24:28.600Z,2.10
2023-02-03T20:26:56.234Z,1.77
2023-02-03T20:29:23.877Z,1.30
2023-02-03T20:31:53.067Z,1.42
2023-02-03T20:34:20.648Z,1.45
2023-02-03T20:36:48.235Z,1.10
2023-02-03T20:39:20.170Z,1.20
2023-02-03T20:41:49.745Z,0.80
2023-02-03T20:44:17.538Z,0.70
2023-02-03T20:46:45.576Z,0.70
2023-02-03T20:49:16.106Z,1.00
2023-02-03T20:51:43.938Z,1.40
2023-02-03T20:54:17.242Z,1.83
2023-02-03T20:56:45.779Z,2.50
2023-02-03T20:59:17.380Z,2.33
2023-02-03T21:01:46.017Z,1.80
2023-02-03T21:04:34.231Z,1.50
2023-02-03T21:07:12.705Z,2.85
2023-02-03T21:09:40.597Z,1.30
2023-02-03T21:12:12.672Z,1.45
2023-02-03T21:14:43.846Z,1.38
2023-02-03T21:17:19.985Z,1.20
2023-02-03T21:19:47.953Z,0.93
2023-02-03T21:22:25.761Z,0.98
2023-02-03T21:24:56.672Z,0.95
2023-02-03T21:27:33.005Z,1.20
2023-02-03T21:30:02.871Z,0.80
2023-02-03T21:32:38.411Z,0.80
2023-02-03T21:35:29.276Z,0.70
2023-02-03T21:38:02.829Z,0.68
2023-02-03T21:40:33.272Z,0.90
2023-02-03T21:43:04.960Z,1.20
2023-02-03T21:45:43.809Z,1.15
2023-02-03T21:48:32.043Z,1.45
2023-02-03T21:51:12.846Z,1.15
2023-02-03T21:53:41.340Z,0.90
2023-02-03T21:56:21.288Z,0.90
2023-02-03T21:58:50.885Z,1.05
2023-02-03T22:01:19.881Z,0.95
2023-02-03T22:03:51.411Z,0.70
2023-02-03T22:06:22.933Z,0.75
2023-02-03T22:08:53.266Z,0.67
2023-02-03T22:11:22.901Z,0.60
2023-02-03T22:13:50.536Z,0.90
2023-02-03T22:16:18.799Z,1.00
2023-02-03T22:18:47.554Z,0.70
2023-02-03T22:21:16.369Z,0.87
2023-02-03T22:23:45.115Z,0.70
2023-02-03T22:26:13.945Z,0.90
2023-02-03T22:28:42.489Z,1.00
2023-02-03T22:31:13.122Z,0.80
2023-02-03T22:33:41.759Z,0.83
2023-02-03T22:36:10.730Z,1.10
2023-02-03T22:38:39.808Z,1.20
2023-02-03T22:41:08.765Z,1.10
2023-02-03T22:43:36.350Z,1.60
2023-02-03T22:46:06.228Z,1.37
2023-02-03T22:48:34.143Z,1.70
2023-02-03T22:51:02.408Z,1.77
2023-02-03T22:53:30.582Z,2.28
2023-02-03T22:55:58.362Z,2.00
2023-02-03T22:58:25.995Z,2.20
2023-02-03T23:00:53.587Z,2.13
2023-02-03T23:03:21.207Z,2.42
2023-02-03T23:05:48.782Z,2.42
2023-02-03T23:08:16.526Z,2.30
2023-02-03T23:10:44.086Z,2.67
2023-02-03T23:13:11.624Z,2.80
2023-02-03T23:15:39.263Z,2.70
2023-02-03T23:18:06.877Z,2.65
2023-02-03T23:20:34.363Z,3.42
2023-02-03T23:23:01.922Z,3.27
2023-02-03T23:25:29.456Z,2.65
2023-02-03T23:27:57.108Z,2.53
2023-02-03T23:30:24.714Z,2.70
2023-02-03T23:32:52.264Z,2.78
2023-02-03T23:35:38.311Z,2.53
2023-02-03T23:38:06.001Z,2.55
2023-02-03T23:40:33.693Z,2.55
2023-02-03T23:43:01.322Z,2.50
2023-02-03T23:45:28.987Z,2.33
2023-02-03T23:47:56.588Z,2.60
2023-02-03T23:50:24.198Z,2.50
2023-02-03T23:52:51.844Z,2.60
2023-02-03T23:55:21.902Z,2.78
2023-02-03T23:57:50.317Z,2.38
